Terminal Aerodrome Forecast
Issued by NWS Upton, NY

Home | Current Version | Previous Version | Text Only | Print | Product List | Glossary On
Versions: 1 2 3 4 5 6 7 8 9 10 11 12 13 14 15 16 17 18 19 20 21 22 23 24 25 26 27 28 29 30
000
FTUS41 KOKX 231736
TAFBDR
TAF
KBDR 231736Z 2318/2418 16009KT P6SM SKC
     FM240200 14005KT P6SM FEW300
     FM240500 VRB03KT P6SM SCT300
     FM241300 14005KT P6SM BKN200
     FM241600 16010KT P6SM OVC200=

USA.gov is the U.S. government's official web portal to all federal, state and local government web resources and services.